Time;durP1;ratioP1;P1;durP2;ratioP2;P2;SDS_P1;SDS_P2;PMS_P1;PMS_P2;Temp;Humidity;BMP_temperature;BMP_pressure;BME280_temperature;BME280_humidity;BME280_pressure;Samples;Min_cycle;Max_cycle;Signal;HPM_P1;HPM_P2
2022/08/13 00:02:18;;;;;;;0.90;0.90;;;24.10;57.00;;;;;;5112851;28;20211;-71
2022/08/13 00:04:59;;;;;;;0.82;0.82;;;24.00;56.90;;;;;;5077414;28;20199;-71
2022/08/13 00:07:27;;;;;;;0.70;0.70;;;24.00;57.00;;;;;;5094428;28;20210;-71
2022/08/13 00:09:55;;;;;;;0.93;0.93;;;24.10;57.10;;;;;;5112709;28;20211;-71
2022/08/13 00:15:20;;;;;;;1.00;1.00;;;24.00;56.90;;;;;;5093987;28;20190;-71
2022/08/13 00:17:51;;;;;;;0.93;0.93;;;24.00;57.00;;;;;;5094213;28;20219;-71
2022/08/13 00:20:27;;;;;;;0.98;0.98;;;24.00;57.10;;;;;;5111425;28;20188;-71
2022/08/13 00:22:54;;;;;;;0.80;0.80;;;24.00;57.00;;;;;;5077509;28;20240;-71
2022/08/13 00:25:20;;;;;;;1.00;1.00;;;24.00;57.10;;;;;;5093644;28;20180;-71
2022/08/13 00:27:56;;;;;;;0.90;0.90;;;24.00;57.00;;;;;;5112450;28;20196;-71
2022/08/13 00:30:31;;;;;;;0.90;0.90;;;24.00;57.10;;;;;;5112594;28;20279;-71
2022/08/13 00:33:10;;;;;;;0.80;0.80;;;24.00;57.00;;;;;;5094205;28;20187;-71
2022/08/13 00:35:37;;;;;;;1.10;1.10;;;24.00;57.10;;;;;;5093662;28;20591;-71
2022/08/13 00:38:08;;;;;;;0.88;0.88;;;24.00;57.10;;;;;;5110904;28;20698;-71
2022/08/13 00:40:34;;;;;;;1.10;1.10;;;24.00;57.20;;;;;;5094159;28;20181;-71
2022/08/13 00:43:02;;;;;;;0.90;0.90;;;24.00;57.10;;;;;;5110515;28;20172;-71
2022/08/13 00:45:31;;;;;;;1.00;1.00;;;24.00;57.80;;;;;;5111707;28;20195;-71
2022/08/13 00:50:44;;;;;;;1.00;1.00;;;24.00;57.20;;;;;;5111743;28;20187;-71
2022/08/13 00:53:18;;;;;;;0.80;0.80;;;24.00;57.20;;;;;;5076831;28;20565;-71
2022/08/13 00:55:55;;;;;;;0.85;0.82;;;24.00;57.20;;;;;;5076372;28;20188;-71
2022/08/13 00:58:23;;;;;;;0.90;0.90;;;24.00;57.20;;;;;;5093866;28;20198;-72
2022/08/13 01:00:53;;;;;;;1.08;1.00;;;24.00;57.20;;;;;;5110975;28;20669;-71
2022/08/13 01:03:20;;;;;;;1.00;1.00;;;24.00;57.20;;;;;;5076958;28;20679;-71
2022/08/13 01:05:49;;;;;;;1.10;1.10;;;24.00;57.20;;;;;;5076515;28;20195;-71
2022/08/13 01:08:18;;;;;;;1.08;1.08;;;23.90;57.20;;;;;;5110666;28;20207;-71
2022/08/13 01:10:48;;;;;;;0.90;0.90;;;24.00;57.20;;;;;;5093676;28;20180;-71
2022/08/13 01:13:17;;;;;;;0.77;0.77;;;24.00;57.30;;;;;;5110708;28;20180;-71
2022/08/13 01:15:45;;;;;;;0.90;0.90;;;23.90;57.20;;;;;;5076287;28;20684;-71
2022/08/13 01:18:13;;;;;;;1.00;1.00;;;24.00;57.30;;;;;;5093727;28;20200;-71
2022/08/13 01:20:47;;;;;;;0.95;0.95;;;23.90;57.20;;;;;;5110197;28;20258;-71
2022/08/13 01:23:17;;;;;;;1.08;1.08;;;23.90;57.30;;;;;;5111889;28;20237;-71
2022/08/13 01:25:44;;;;;;;1.20;1.20;;;24.00;57.30;;;;;;5110892;28;20176;-71
2022/08/13 01:28:15;;;;;;;0.98;0.98;;;24.00;57.30;;;;;;5093829;28;20196;-71
2022/08/13 01:30:46;;;;;;;1.00;0.90;;;23.90;57.30;;;;;;5077091;28;20233;-71
2022/08/13 01:33:17;;;;;;;1.00;1.00;;;23.90;57.30;;;;;;5093809;28;20212;-71
2022/08/13 01:35:45;;;;;;;1.00;1.00;;;23.90;57.30;;;;;;5076092;28;20188;-71
2022/08/13 01:38:12;;;;;;;1.05;1.05;;;23.90;57.30;;;;;;5112014;28;20212;-71
2022/08/13 01:40:38;;;;;;;0.98;0.95;;;23.90;57.30;;;;;;5093543;28;20177;-71
2022/08/13 01:43:05;;;;;;;1.30;1.20;;;23.90;57.30;;;;;;5093626;28;20180;-71
2022/08/13 01:45:31;;;;;;;0.93;0.93;;;23.90;57.30;;;;;;5092852;28;20187;-71
2022/08/13 01:50:42;;;;;;;1.23;1.13;;;23.90;57.30;;;;;;5093436;28;20723;-71
2022/08/13 01:53:11;;;;;;;1.13;1.00;;;23.90;57.40;;;;;;5094598;28;20212;-71
2022/08/13 01:55:55;;;;;;;1.17;1.08;;;23.90;57.40;;;;;;5114703;28;20188;-71
2022/08/13 01:58:25;;;;;;;1.20;1.10;;;23.90;57.40;;;;;;5115072;28;20211;-71
2022/08/13 02:00:59;;;;;;;1.38;1.00;;;23.90;57.40;;;;;;5080300;28;20191;-71
2022/08/13 02:03:26;;;;;;;1.17;1.10;;;23.90;57.40;;;;;;5097003;28;20187;-71
2022/08/13 02:05:52;;;;;;;0.80;0.80;;;23.90;57.40;;;;;;5096192;28;20184;-71
2022/08/13 02:08:26;;;;;;;0.80;0.80;;;23.90;57.40;;;;;;5115016;28;20215;-70
2022/08/13 02:10:54;;;;;;;1.13;1.13;;;23.90;57.40;;;;;;5114907;28;20436;-71
2022/08/13 02:13:29;;;;;;;1.10;1.00;;;23.90;57.40;;;;;;5096763;28;20563;-71
2022/08/13 02:15:57;;;;;;;1.05;1.05;;;23.90;57.40;;;;;;5096171;28;20180;-71
2022/08/13 02:18:26;;;;;;;1.38;1.27;;;23.90;57.50;;;;;;5096674;28;20204;-71
2022/08/13 02:20:59;;;;;;;1.10;1.10;;;23.90;57.50;;;;;;5103568;28;20180;-71
2022/08/13 02:23:32;;;;;;;1.05;1.05;;;23.90;57.40;;;;;;5091500;28;20690;-71
2022/08/13 02:26:01;;;;;;;2.35;1.00;;;23.90;57.50;;;;;;5114305;28;20255;-71
2022/08/13 02:28:32;;;;;;;0.90;0.90;;;23.90;57.60;;;;;;5105969;28;20204;-71
2022/08/13 02:30:58;;;;;;;0.93;0.93;;;23.90;57.60;;;;;;5079336;28;20176;-71
2022/08/13 02:33:25;;;;;;;1.02;1.00;;;23.80;57.50;;;;;;5113367;28;20180;-71
2022/08/13 02:35:51;;;;;;;1.15;1.02;;;23.90;57.60;;;;;;5095598;28;20263;-71
2022/08/13 02:38:18;;;;;;;0.90;0.90;;;23.90;57.60;;;;;;5113108;28;20215;-71
2022/08/13 02:43:32;;;;;;;1.15;1.05;;;23.90;57.60;;;;;;5114049;28;20195;-71
2022/08/13 02:46:03;;;;;;;0.80;0.80;;;23.90;57.60;;;;;;5093700;28;20216;-71
2022/08/13 02:48:29;;;;;;;1.30;1.20;;;23.90;57.60;;;;;;5096015;28;20204;-71
2022/08/13 02:50:57;;;;;;;1.88;1.13;;;23.90;57.60;;;;;;5114165;28;20187;-71
2022/08/13 02:53:23;;;;;;;1.00;1.00;;;23.90;57.60;;;;;;5095797;28;20183;-71
2022/08/13 02:55:51;;;;;;;1.20;1.20;;;23.80;57.50;;;;;;5095338;28;20180;-71
2022/08/13 02:58:18;;;;;;;1.10;1.10;;;23.80;57.50;;;;;;5078815;28;20200;-71
2022/08/13 03:00:52;;;;;;;1.20;1.20;;;23.90;57.60;;;;;;5095737;28;20190;-71
2022/08/13 03:03:20;;;;;;;1.00;1.00;;;23.80;57.50;;;;;;5095803;28;20180;-71
2022/08/13 03:05:46;;;;;;;1.00;1.00;;;23.80;57.50;;;;;;5094652;28;20185;-71
2022/08/13 03:08:12;;;;;;;1.27;1.20;;;23.80;57.50;;;;;;5095722;28;20220;-71
2022/08/13 03:10:41;;;;;;;1.00;1.00;;;23.80;57.50;;;;;;5095851;28;20180;-71
2022/08/13 03:13:11;;;;;;;1.27;1.25;;;23.80;57.50;;;;;;5112553;28;20561;-71
2022/08/13 03:15:39;;;;;;;0.90;0.90;;;23.90;57.60;;;;;;5094482;28;20191;-72
2022/08/13 03:18:04;;;;;;;0.90;0.90;;;23.80;58.10;;;;;;5112299;28;20268;-71
2022/08/13 03:20:31;;;;;;;1.20;1.10;;;23.80;57.50;;;;;;5095559;28;20186;-71
2022/08/13 03:23:00;;;;;;;1.05;0.95;;;23.80;57.50;;;;;;5113627;28;20219;-71
2022/08/13 03:25:31;;;;;;;1.00;1.00;;;23.80;57.50;;;;;;5094665;28;20181;-72
2022/08/13 03:27:58;;;;;;;0.98;0.98;;;23.80;57.50;;;;;;5078643;28;20653;-71
2022/08/13 03:30:26;;;;;;;1.20;1.10;;;23.90;57.60;;;;;;5078307;28;20267;-71
2022/08/13 03:32:54;;;;;;;1.23;1.08;;;23.80;57.50;;;;;;5095063;28;20697;-71
2022/08/13 03:35:22;;;;;;;1.00;1.00;;;23.80;57.50;;;;;;5112521;28;20736;-71
2022/08/13 03:37:54;;;;;;;1.10;1.00;;;23.80;57.50;;;;;;5077969;28;20235;-71
2022/08/13 03:41:00;;;;;;;0.90;0.90;;;23.80;57.50;;;;;;5095196;28;20263;-71
2022/08/13 03:43:13;;;;;;;1.25;1.15;;;23.80;57.60;;;;;;5094999;28;20452;-71
2022/08/13 03:45:40;;;;;;;1.02;1.02;;;23.80;57.60;;;;;;5094365;28;20184;-71
2022/08/13 03:48:06;;;;;;;1.20;1.10;;;23.80;57.60;;;;;;5113482;28;20704;-71
2022/08/13 03:50:33;;;;;;;1.00;1.00;;;23.80;57.60;;;;;;5113078;28;20213;-71
2022/08/13 03:53:06;;;;;;;1.15;1.05;;;23.80;57.60;;;;;;5112625;28;20188;-71
2022/08/13 03:55:33;;;;;;;1.33;1.23;;;23.80;57.50;;;;;;5077336;28;20233;-71
2022/08/13 03:58:00;;;;;;;1.13;1.05;;;23.80;57.50;;;;;;5112838;28;20295;-71
2022/08/13 04:00:29;;;;;;;0.90;0.90;;;23.80;57.60;;;;;;5112861;28;20176;-71
2022/08/13 04:02:56;;;;;;;1.10;1.10;;;23.80;57.60;;;;;;5094792;28;20184;-71
2022/08/13 04:05:22;;;;;;;1.00;1.00;;;23.80;57.50;;;;;;5094407;28;20187;-72
2022/08/13 04:07:52;;;;;;;0.90;0.90;;;23.80;57.60;;;;;;5094292;28;20208;-71
2022/08/13 04:10:19;;;;;;;1.10;1.02;;;23.80;57.60;;;;;;5112917;28;20184;-71
2022/08/13 04:12:45;;;;;;;1.02;1.02;;;23.80;57.60;;;;;;5094418;28;20282;-72
2022/08/13 04:15:11;;;;;;;1.92;1.10;;;23.80;57.60;;;;;;5112083;28;20188;-72
2022/08/13 04:17:37;;;;;;;1.30;1.20;;;23.80;57.60;;;;;;5110246;28;20224;-71
2022/08/13 04:20:08;;;;;;;1.20;1.20;;;23.80;57.70;;;;;;5112481;28;20616;-71
2022/08/13 04:22:36;;;;;;;0.90;0.90;;;23.80;57.70;;;;;;5094408;28;20178;-71
2022/08/13 04:25:05;;;;;;;1.27;1.20;;;23.80;57.70;;;;;;5093693;28;20242;-71
2022/08/13 04:27:32;;;;;;;1.00;1.00;;;23.80;57.70;;;;;;5112329;28;20231;-71
2022/08/13 04:29:59;;;;;;;1.73;1.20;;;23.80;58.30;;;;;;5112546;28;20236;-71
2022/08/13 04:32:25;;;;;;;1.20;1.20;;;23.80;57.80;;;;;;5094319;28;20190;-71
2022/08/13 04:34:51;;;;;;;1.20;1.20;;;23.80;57.80;;;;;;5093846;28;20635;-71
2022/08/13 04:37:17;;;;;;;1.10;1.10;;;23.80;57.80;;;;;;5094197;28;20220;-71
2022/08/13 04:39:44;;;;;;;1.00;1.00;;;23.80;57.80;;;;;;5112453;28;20244;-71
2022/08/13 04:42:11;;;;;;;1.05;1.05;;;23.80;57.70;;;;;;5094163;28;20342;-71
2022/08/13 04:44:37;;;;;;;1.27;1.20;;;23.80;57.80;;;;;;5076785;28;20215;-71
2022/08/13 04:47:04;;;;;;;1.20;1.20;;;23.80;57.80;;;;;;5112090;28;20184;-71
2022/08/13 04:49:31;;;;;;;1.20;1.10;;;23.80;57.80;;;;;;5112283;28;20191;-71
2022/08/13 04:51:57;;;;;;;1.17;1.10;;;23.80;57.80;;;;;;5081323;28;20191;-71
2022/08/13 04:54:23;;;;;;;0.88;0.88;;;23.80;58.40;;;;;;5073354;28;20184;-71
2022/08/13 04:56:48;;;;;;;1.20;1.10;;;23.80;57.80;;;;;;5073856;28;20208;-71
2022/08/13 04:59:14;;;;;;;1.10;1.00;;;23.80;57.80;;;;;;5074037;28;20227;-71
2022/08/13 05:01:40;;;;;;;1.35;1.25;;;23.80;57.90;;;;;;5091920;28;20207;-71
2022/08/13 05:04:06;;;;;;;1.20;1.10;;;23.80;57.80;;;;;;5074018;28;20242;-71
2022/08/13 05:06:32;;;;;;;1.02;1.02;;;23.80;57.80;;;;;;5056428;28;20222;-71
2022/08/13 05:09:00;;;;;;;1.10;1.10;;;23.80;57.80;;;;;;5073602;28;20213;-71
2022/08/13 05:11:26;;;;;;;1.40;1.30;;;23.80;57.90;;;;;;5057153;28;20652;-71
2022/08/13 05:13:52;;;;;;;1.13;1.13;;;23.80;57.90;;;;;;5091754;28;20192;-71
2022/08/13 05:16:18;;;;;;;1.15;1.10;;;23.70;57.80;;;;;;5088814;28;20694;-71
2022/08/13 05:18:54;;;;;;;1.02;1.02;;;23.80;57.90;;;;;;5111954;28;20196;-71
2022/08/13 05:21:23;;;;;;;1.08;1.08;;;23.70;57.80;;;;;;5110688;28;20180;-71
2022/08/13 05:23:53;;;;;;;1.10;1.00;;;23.80;57.90;;;;;;5093784;28;20176;-71
2022/08/13 05:26:24;;;;;;;0.90;0.90;;;23.80;57.90;;;;;;5093194;28;20189;-71
2022/08/13 05:28:51;;;;;;;1.02;1.02;;;23.70;57.80;;;;;;5113393;28;20228;-71
2022/08/13 05:31:17;;;;;;;1.10;1.10;;;23.80;57.90;;;;;;5116384;28;20256;-71
2022/08/13 05:33:44;;;;;;;1.00;1.00;;;23.80;57.90;;;;;;5097513;28;20188;-71
2022/08/13 05:36:13;;;;;;;1.15;1.15;;;23.70;57.80;;;;;;5113733;28;20260;-71
2022/08/13 05:38:39;;;;;;;1.10;1.10;;;23.80;57.90;;;;;;5115510;28;20271;-71
2022/08/13 05:41:10;;;;;;;0.90;0.90;;;23.70;57.80;;;;;;5097135;28;20176;-71
2022/08/13 05:43:36;;;;;;;1.30;1.20;;;23.70;57.80;;;;;;5097340;28;20172;-71
2022/08/13 05:46:09;;;;;;;1.38;1.20;;;23.70;57.80;;;;;;5096466;28;20176;-72
2022/08/13 05:48:39;;;;;;;1.23;1.20;;;23.80;57.90;;;;;;5097538;28;20203;-71
2022/08/13 05:51:10;;;;;;;1.05;1.05;;;23.70;58.40;;;;;;5097420;28;20176;-71
2022/08/13 05:53:38;;;;;;;1.08;1.08;;;23.70;57.90;;;;;;5113891;28;20229;-71
2022/08/13 05:56:08;;;;;;;1.20;1.20;;;23.70;57.90;;;;;;5096088;28;20180;-71
2022/08/13 05:58:34;;;;;;;1.20;1.10;;;23.70;57.90;;;;;;5096969;28;20208;-71
2022/08/13 06:03:46;;;;;;;1.25;1.15;;;23.70;57.90;;;;;;5096820;28;20233;-71
2022/08/13 06:06:20;;;;;;;1.10;1.10;;;23.70;57.90;;;;;;5079577;28;20275;-71
2022/08/13 06:08:47;;;;;;;1.20;1.20;;;23.70;57.90;;;;;;5096966;28;20584;-71
2022/08/13 06:11:17;;;;;;;1.10;1.10;;;23.80;58.00;;;;;;5080294;28;20180;-71
2022/08/13 06:13:48;;;;;;;1.25;1.20;;;23.70;57.90;;;;;;5114950;28;20565;-71
2022/08/13 06:16:20;;;;;;;1.10;1.10;;;23.70;57.90;;;;;;5096099;28;20225;-71
2022/08/13 06:18:48;;;;;;;1.10;1.10;;;23.70;57.90;;;;;;5114851;28;20210;-71
2022/08/13 06:21:17;;;;;;;1.33;1.30;;;23.70;57.90;;;;;;5096574;28;20204;-71
2022/08/13 06:23:45;;;;;;;1.30;1.20;;;23.70;57.90;;;;;;5114871;28;20210;-71
2022/08/13 06:26:17;;;;;;;1.30;1.20;;;23.70;57.90;;;;;;5096029;28;20208;-71
2022/08/13 06:28:44;;;;;;;1.00;1.00;;;23.70;57.90;;;;;;5114650;28;20317;-71
2022/08/13 06:31:16;;;;;;;1.48;1.38;;;23.70;58.00;;;;;;5114761;28;20172;-71
2022/08/13 06:33:44;;;;;;;1.23;1.20;;;23.70;58.00;;;;;;5114616;28;20180;-71
2022/08/13 06:36:14;;;;;;;1.10;1.00;;;23.70;58.00;;;;;;5095865;28;20180;-71
2022/08/13 06:38:49;;;;;;;1.40;1.30;;;23.70;58.00;;;;;;5079089;28;20200;-71
2022/08/13 06:41:19;;;;;;;1.33;0.98;;;23.70;58.00;;;;;;5114091;28;20180;-71
2022/08/13 06:43:50;;;;;;;1.40;1.30;;;23.70;57.90;;;;;;5096174;28;20271;-71
2022/08/13 06:46:25;;;;;;;1.20;1.20;;;23.70;58.00;;;;;;5095619;28;20176;-71
2022/08/13 06:48:52;;;;;;;1.30;1.20;;;23.70;57.90;;;;;;5096225;28;20199;-71
2022/08/13 06:51:19;;;;;;;1.20;1.10;;;23.70;58.00;;;;;;5114435;28;20184;-71
2022/08/13 06:53:46;;;;;;;1.05;1.05;;;23.70;58.00;;;;;;5095629;28;20188;-71
2022/08/13 06:56:17;;;;;;;1.20;1.17;;;23.70;57.90;;;;;;5078318;28;20180;-71
2022/08/13 06:58:47;;;;;;;1.25;1.15;;;23.70;58.00;;;;;;5112948;28;20230;-71
2022/08/13 07:01:23;;;;;;;1.30;1.20;;;23.70;58.00;;;;;;5075373;28;20188;-71
2022/08/13 07:03:52;;;;;;;1.00;1.00;;;23.70;58.00;;;;;;5101838;28;20271;-71
2022/08/13 07:06:26;;;;;;;1.40;1.30;;;23.70;58.00;;;;;;5103316;28;20188;-72
2022/08/13 07:08:57;;;;;;;1.30;1.20;;;23.70;58.00;;;;;;5094068;28;20307;-72
2022/08/13 07:11:27;;;;;;;1.00;1.00;;;23.70;58.00;;;;;;5078863;28;20192;-71
2022/08/13 07:13:59;;;;;;;1.10;1.10;;;23.70;58.00;;;;;;5095485;28;20190;-72
2022/08/13 07:16:30;;;;;;;1.30;1.20;;;23.70;58.00;;;;;;5094910;28;20212;-71
2022/08/13 07:18:59;;;;;;;1.00;1.00;;;23.70;58.00;;;;;;5112451;28;20210;-71
2022/08/13 07:21:27;;;;;;;1.13;1.05;;;23.70;58.00;;;;;;5112648;28;20172;-71
2022/08/13 07:23:55;;;;;;;1.35;1.25;;;23.70;58.00;;;;;;5113537;28;20176;-71
2022/08/13 07:26:24;;;;;;;1.05;1.05;;;23.70;57.90;;;;;;5113040;28;20559;-71
2022/08/13 07:28:51;;;;;;;0.95;0.90;;;23.70;57.90;;;;;;5078474;28;20214;-71
2022/08/13 07:31:30;;;;;;;2.42;1.20;;;23.70;57.90;;;;;;5095239;28;20184;-71
2022/08/13 07:33:59;;;;;;;1.10;1.10;;;23.70;57.90;;;;;;5113059;28;20242;-71
2022/08/13 07:36:29;;;;;;;1.30;1.20;;;23.70;57.90;;;;;;5091083;28;20300;-71
2022/08/13 07:38:57;;;;;;;1.10;1.10;;;23.70;57.90;;;;;;5075108;28;20578;-71
2022/08/13 07:41:23;;;;;;;1.30;1.20;;;23.70;57.90;;;;;;5074971;28;20173;-72
2022/08/13 07:43:49;;;;;;;1.50;1.40;;;23.70;57.90;;;;;;5075148;28;20190;-71
2022/08/13 07:46:17;;;;;;;1.20;1.20;;;23.70;57.90;;;;;;5090987;28;20181;-71
2022/08/13 07:48:51;;;;;;;1.20;1.10;;;23.70;57.90;;;;;;5074925;28;20205;-71
2022/08/13 07:51:21;;;;;;;1.10;1.10;;;23.70;57.80;;;;;;5074662;28;20546;-71
2022/08/13 07:53:54;;;;;;;1.10;1.10;;;23.70;57.90;;;;;;5074271;28;20185;-72
2022/08/13 07:56:29;;;;;;;1.23;1.23;;;23.70;57.80;;;;;;5073781;28;20267;-72
2022/08/13 07:59:18;;;;;;;1.23;1.23;;;23.70;57.80;;;;;;5092600;28;20212;-71
2022/08/13 08:01:54;;;;;;;1.40;1.35;;;23.80;57.70;;;;;;5074618;28;20259;-71
2022/08/13 08:04:29;;;;;;;1.10;1.10;;;23.80;57.50;;;;;;5074745;28;20595;-71
2022/08/13 08:06:56;;;;;;;1.40;1.30;;;23.90;57.60;;;;;;5091931;28;20199;-71
2022/08/13 08:09:31;;;;;;;1.05;1.05;;;23.90;57.60;;;;;;5074343;28;20267;-71
2022/08/13 08:14:50;;;;;;;1.20;1.10;;;23.90;57.50;;;;;;5073595;28;20217;-72
2022/08/13 08:17:18;;;;;;;1.20;1.20;;;23.90;57.50;;;;;;5092115;28;20217;-71
2022/08/13 08:19:47;;;;;;;1.00;1.00;;;24.00;57.20;;;;;;5092272;28;20684;-71
2022/08/13 08:22:15;;;;;;;1.10;1.10;;;24.00;57.40;;;;;;5099934;28;20217;-71
2022/08/13 08:24:48;;;;;;;1.10;1.10;;;24.00;57.40;;;;;;5111956;28;20176;-72
2022/08/13 08:27:19;;;;;;;0.95;0.95;;;24.00;57.30;;;;;;5112463;28;20257;-71
2022/08/13 08:29:46;;;;;;;0.82;0.80;;;24.00;57.40;;;;;;5112481;28;20246;-71
2022/08/13 08:32:14;;;;;;;1.45;1.35;;;24.00;57.40;;;;;;5094248;28;20192;-71
2022/08/13 08:34:45;;;;;;;0.98;0.98;;;24.00;57.60;;;;;;5076760;28;20252;-71
2022/08/13 08:43:01;;;;;;;1.27;1.17;;;24.00;57.40;;;;;;5112313;28;20172;-71
2022/08/13 08:45:28;;;;;;;1.15;1.15;;;24.10;57.50;;;;;;5093563;28;20183;-71
2022/08/13 08:47:53;;;;;;;1.08;1.05;;;24.10;58.00;;;;;;5094091;28;20431;-71
2022/08/13 08:50:22;;;;;;;1.20;1.20;;;24.10;57.30;;;;;;5093990;28;20219;-71
2022/08/13 08:55:42;;;;;;;1.17;1.17;;;24.10;57.40;;;;;;5089603;28;20207;-71
2022/08/13 08:58:11;;;;;;;1.30;1.20;;;24.10;57.40;;;;;;5056868;28;20258;-71
2022/08/13 09:00:39;;;;;;;1.00;1.00;;;24.10;57.50;;;;;;5091869;28;20181;-71
2022/08/13 09:03:08;;;;;;;1.20;1.10;;;24.20;57.60;;;;;;5093270;28;20172;-71
2022/08/13 09:05:35;;;;;;;1.38;1.27;;;24.20;57.50;;;;;;5077600;28;20185;-71
2022/08/13 09:08:06;;;;;;;1.65;1.15;;;24.10;57.50;;;;;;5061031;28;20212;-71
2022/08/13 09:10:35;;;;;;;0.85;0.85;;;24.20;57.50;;;;;;5093179;28;20184;-71
2022/08/13 09:13:03;;;;;;;1.33;1.23;;;24.20;57.60;;;;;;5098152;28;20211;-71
2022/08/13 09:15:34;;;;;;;1.30;1.20;;;24.20;57.60;;;;;;5080657;28;20192;-71
2022/08/13 09:18:02;;;;;;;1.35;1.30;;;24.20;57.60;;;;;;5116205;28;20258;-71
2022/08/13 09:20:33;;;;;;;1.30;1.20;;;24.20;57.50;;;;;;5080040;28;20550;-71
2022/08/13 09:23:07;;;;;;;1.30;1.20;;;24.20;57.60;;;;;;5089062;28;20233;-71
2022/08/13 09:25:35;;;;;;;1.33;1.23;;;24.20;57.40;;;;;;5115299;28;20179;-71
2022/08/13 09:28:03;;;;;;;1.40;1.30;;;24.20;57.60;;;;;;5115825;28;20752;-71
2022/08/13 09:30:31;;;;;;;1.00;1.00;;;24.20;57.50;;;;;;5114129;28;20184;-71
2022/08/13 09:32:59;;;;;;;1.08;1.08;;;24.20;57.40;;;;;;5115953;28;20236;-71
2022/08/13 09:35:28;;;;;;;1.10;1.10;;;24.20;57.40;;;;;;5115313;28;20667;-71
2022/08/13 09:37:58;;;;;;;1.08;1.00;;;24.20;57.50;;;;;;5115425;28;20349;-71
2022/08/13 09:40:32;;;;;;;1.10;1.10;;;24.30;57.40;;;;;;5096942;28;20247;-71
2022/08/13 09:43:14;;;;;;;1.33;1.23;;;24.20;57.40;;;;;;5097666;28;20183;-71
2022/08/13 09:45:42;;;;;;;1.50;1.40;;;24.20;57.40;;;;;;5096865;28;20172;-71
2022/08/13 09:48:08;;;;;;;1.90;1.17;;;24.20;57.40;;;;;;5115520;28;20204;-71
2022/08/13 09:50:35;;;;;;;1.05;1.05;;;24.20;57.40;;;;;;5097420;28;20190;-71
2022/08/13 09:53:02;;;;;;;1.33;1.23;;;24.20;57.40;;;;;;5115411;28;20184;-71
2022/08/13 09:55:27;;;;;;;0.90;0.90;;;24.20;57.60;;;;;;5114749;28;20176;-71
2022/08/13 09:58:02;;;;;;;1.80;1.25;;;24.20;57.40;;;;;;5115256;28;20219;-71
2022/08/13 10:00:31;;;;;;;1.30;1.20;;;24.20;57.50;;;;;;5097308;28;20180;-71
2022/08/13 10:03:06;;;;;;;1.10;1.10;;;24.20;57.40;;;;;;5080224;28;20192;-71
2022/08/13 10:05:34;;;;;;;1.25;1.15;;;24.20;57.30;;;;;;5096684;28;20199;-71
2022/08/13 10:08:15;;;;;;;1.30;1.20;;;24.20;57.40;;;;;;5096864;28;20288;-71
2022/08/13 10:10:44;;;;;;;1.20;1.10;;;24.20;57.30;;;;;;5096980;28;20184;-71
2022/08/13 10:13:13;;;;;;;1.38;1.27;;;24.30;57.40;;;;;;5115019;28;20242;-71
2022/08/13 10:15:41;;;;;;;1.25;1.23;;;24.20;57.50;;;;;;5096092;28;20194;-73
2022/08/13 10:18:08;;;;;;;1.73;1.33;;;24.20;57.50;;;;;;5114817;28;20211;-71
2022/08/13 10:20:40;;;;;;;1.27;1.17;;;24.20;57.50;;;;;;5113787;28;20176;-71
2022/08/13 10:23:11;;;;;;;1.40;1.30;;;24.20;57.40;;;;;;5096820;28;20180;-71
2022/08/13 10:25:38;;;;;;;1.52;1.25;;;24.20;57.40;;;;;;5096141;28;20245;-71
2022/08/13 10:28:36;;;;;;;1.40;1.30;;;24.20;57.50;;;;;;5113346;28;20287;-71
2022/08/13 10:31:07;;;;;;;1.10;1.00;;;24.20;57.20;;;;;;5057022;28;20203;-73
2022/08/13 10:33:37;;;;;;;1.00;1.00;;;24.20;57.20;;;;;;5114739;28;20670;-73
2022/08/13 10:36:05;;;;;;;1.30;1.20;;;24.20;57.20;;;;;;5113869;28;20325;-71
2022/08/13 10:38:32;;;;;;;1.88;1.17;;;24.20;57.20;;;;;;5096627;28;20203;-71
2022/08/13 10:41:04;;;;;;;1.20;1.10;;;24.20;57.20;;;;;;5079456;28;20176;-71
2022/08/13 10:43:31;;;;;;;1.30;1.20;;;24.20;57.20;;;;;;5114645;28;20187;-71
2022/08/13 10:45:58;;;;;;;1.25;1.15;;;24.20;57.40;;;;;;5078809;28;20185;-71
2022/08/13 10:48:28;;;;;;;1.00;1.00;;;24.20;57.40;;;;;;5114358;28;20211;-71
2022/08/13 10:50:55;;;;;;;1.48;1.38;;;24.20;57.40;;;;;;5113281;28;20188;-71
2022/08/13 10:56:09;;;;;;;1.13;1.13;;;24.20;57.30;;;;;;5111579;28;20280;-71
2022/08/13 10:58:35;;;;;;;1.30;1.20;;;24.30;57.40;;;;;;5095734;28;20204;-71
2022/08/13 11:01:03;;;;;;;1.40;1.30;;;24.30;57.40;;;;;;5096049;28;20180;-71
2022/08/13 11:03:33;;;;;;;1.33;1.23;;;24.30;57.40;;;;;;5095945;28;20558;-71
2022/08/13 11:06:03;;;;;;;1.10;1.10;;;24.20;57.30;;;;;;5095020;28;20269;-71
2022/08/13 11:08:39;;;;;;;1.35;1.25;;;24.20;57.30;;;;;;5095493;28;20208;-71
2022/08/13 11:11:07;;;;;;;1.67;1.05;;;24.20;57.10;;;;;;5114040;28;20180;-71
2022/08/13 11:13:33;;;;;;;1.50;1.40;;;24.20;57.20;;;;;;5095584;28;20220;-71
2022/08/13 11:16:00;;;;;;;1.20;1.10;;;24.30;57.20;;;;;;5078399;28;20198;-71
2022/08/13 11:18:28;;;;;;;1.35;1.25;;;24.30;57.10;;;;;;5078573;28;20285;-71
2022/08/13 11:21:06;;;;;;;0.90;0.90;;;24.20;57.10;;;;;;5078589;28;20184;-71
2022/08/13 11:23:33;;;;;;;1.40;1.30;;;24.30;57.10;;;;;;5095431;28;20184;-71
2022/08/13 11:25:59;;;;;;;1.15;1.10;;;24.30;57.10;;;;;;5094214;28;20176;-71
2022/08/13 11:28:25;;;;;;;2.05;1.30;;;24.30;57.10;;;;;;5113435;28;20208;-71
2022/08/13 11:30:53;;;;;;;1.38;1.27;;;24.30;57.30;;;;;;5111999;28;20531;-71
2022/08/13 11:33:22;;;;;;;1.10;1.10;;;24.30;57.10;;;;;;5112476;28;20180;-72
2022/08/13 11:35:48;;;;;;;2.10;1.92;;;24.30;57.40;;;;;;5077861;28;20188;-72
2022/08/13 11:38:17;;;;;;;1.70;1.60;;;24.30;57.30;;;;;;5112023;28;20230;-71
2022/08/13 11:41:02;;;;;;;1.30;1.20;;;24.30;57.40;;;;;;5078505;28;20227;-71
2022/08/13 11:43:30;;;;;;;0.98;0.98;;;24.30;57.20;;;;;;5112106;28;20173;-71
2022/08/13 11:45:56;;;;;;;1.88;1.30;;;24.30;57.30;;;;;;5077164;28;20599;-71
2022/08/13 11:48:23;;;;;;;1.17;1.17;;;24.30;57.10;;;;;;5111894;28;20303;-71
2022/08/13 11:50:51;;;;;;;1.20;1.10;;;24.30;56.80;;;;;;5077903;28;20198;-71
2022/08/13 11:53:18;;;;;;;1.15;1.10;;;24.30;56.80;;;;;;5112121;28;20183;-71
2022/08/13 11:55:44;;;;;;;1.83;1.20;;;24.30;56.90;;;;;;5111121;28;20742;-71
2022/08/13 11:58:10;;;;;;;1.00;1.00;;;24.30;56.80;;;;;;5077737;28;20302;-71
2022/08/13 12:00:39;;;;;;;1.17;1.10;;;24.30;57.10;;;;;;5113055;28;20176;-71
2022/08/13 12:03:06;;;;;;;1.25;1.10;;;24.30;57.50;;;;;;5077730;28;20196;-71
2022/08/13 12:05:33;;;;;;;1.38;1.13;;;24.30;57.90;;;;;;5110896;28;20227;-71
2022/08/13 12:07:59;;;;;;;1.08;1.08;;;24.30;56.90;;;;;;5077530;28;20234;-71
2022/08/13 12:10:25;;;;;;;1.13;1.13;;;24.30;56.90;;;;;;5112851;28;20207;-71
2022/08/13 12:12:51;;;;;;;1.20;1.10;;;24.30;57.00;;;;;;5094915;28;20216;-71
2022/08/13 12:15:17;;;;;;;1.27;1.17;;;24.30;56.60;;;;;;5112236;28;20221;-71
2022/08/13 12:17:48;;;;;;;1.15;1.15;;;24.30;56.80;;;;;;5094266;28;20219;-71
2022/08/13 12:20:22;;;;;;;1.15;1.13;;;24.30;56.90;;;;;;5094522;28;20184;-72
2022/08/13 12:22:54;;;;;;;1.25;1.00;;;24.30;56.50;;;;;;5112615;28;20693;-71
2022/08/13 12:25:23;;;;;;;1.15;1.15;;;24.30;56.90;;;;;;5094019;28;20274;-71
2022/08/13 12:27:49;;;;;;;1.38;1.27;;;24.30;56.80;;;;;;5094317;28;20562;-71
2022/08/13 12:30:15;;;;;;;1.40;1.30;;;24.30;56.30;;;;;;5093884;28;20179;-71
2022/08/13 12:32:41;;;;;;;1.27;1.20;;;24.30;56.40;;;;;;5111239;28;20184;-71
2022/08/13 12:35:07;;;;;;;1.08;1.08;;;24.30;56.10;;;;;;5093721;28;20184;-71
2022/08/13 12:37:33;;;;;;;1.17;1.10;;;24.30;56.20;;;;;;5076449;28;20212;-71
2022/08/13 12:39:59;;;;;;;1.00;1.00;;;24.30;56.40;;;;;;5094088;28;20202;-71
2022/08/13 12:42:27;;;;;;;1.48;1.38;;;24.30;56.50;;;;;;5094059;28;20195;-70
2022/08/13 12:44:56;;;;;;;1.65;1.55;;;24.30;56.50;;;;;;5112492;28;20185;-71
2022/08/13 12:47:22;;;;;;;1.02;1.00;;;24.30;56.60;;;;;;5093494;28;20204;-71
2022/08/13 12:49:48;;;;;;;1.42;1.33;;;24.30;56.40;;;;;;5110999;28;20191;-71
2022/08/13 12:52:13;;;;;;;1.20;1.20;;;24.30;56.50;;;;;;5112244;28;20180;-71
2022/08/13 12:54:39;;;;;;;1.40;1.30;;;24.30;56.60;;;;;;5112394;28;20184;-71
2022/08/13 12:57:05;;;;;;;1.33;1.30;;;24.30;56.60;;;;;;5111451;28;20767;-71
2022/08/13 12:59:31;;;;;;;1.40;1.30;;;24.30;57.00;;;;;;5111690;28;20198;-70
2022/08/13 13:01:58;;;;;;;1.25;1.20;;;24.30;57.00;;;;;;5111759;28;20180;-71
2022/08/13 13:04:24;;;;;;;1.88;1.30;;;24.30;56.90;;;;;;5095114;28;20284;-70
2022/08/13 13:06:52;;;;;;;1.33;1.23;;;24.30;56.70;;;;;;5084918;28;20282;-71
2022/08/13 13:09:19;;;;;;;1.40;1.30;;;24.40;56.80;;;;;;5107365;28;20546;-71
2022/08/13 13:11:46;;;;;;;1.15;1.15;;;24.30;56.80;;;;;;5056963;28;20213;-71
2022/08/13 13:14:12;;;;;;;1.25;1.15;;;24.30;56.80;;;;;;5057049;28;20185;-71
2022/08/13 13:16:40;;;;;;;1.40;1.30;;;24.30;56.60;;;;;;5073029;28;20220;-71
2022/08/13 13:19:09;;;;;;;1.38;1.27;;;24.30;56.60;;;;;;5073728;28;20236;-71
2022/08/13 13:21:36;;;;;;;1.08;1.02;;;24.30;56.80;;;;;;5056988;28;20284;-71
2022/08/13 13:24:07;;;;;;;1.25;1.25;;;24.30;56.30;;;;;;5073305;28;20255;-70
2022/08/13 13:26:32;;;;;;;1.33;1.23;;;24.30;56.20;;;;;;5090971;28;20205;-71